sensor_id;sensor_type;location;lat;lon;timestamp;P1;durP1;ratioP1;P2;durP2;ratioP2
50739;SDS011;36704;52.524;17.580;2022-09-09T00:00:31;19.52;;;10.82;;
50739;SDS011;36704;52.524;17.580;2022-09-09T00:03:34;19.25;;;12.50;;
50739;SDS011;36704;52.524;17.580;2022-09-09T00:06:27;19.95;;;12.25;;
50739;SDS011;36704;52.524;17.580;2022-09-09T00:09:17;21.50;;;12.98;;
50739;SDS011;36704;52.524;17.580;2022-09-09T00:12:06;18.77;;;12.40;;
50739;SDS011;36704;52.524;17.580;2022-09-09T00:15:02;17.30;;;12.40;;
50739;SDS011;36704;52.524;17.580;2022-09-09T00:24:04;22.05;;;11.90;;
50739;SDS011;36704;52.524;17.580;2022-09-09T00:26:56;19.02;;;11.63;;
50739;SDS011;36704;52.524;17.580;2022-09-09T00:29:58;18.58;;;12.02;;
50739;SDS011;36704;52.524;17.580;2022-09-09T00:33:00;14.45;;;10.95;;
50739;SDS011;36704;52.524;17.580;2022-09-09T00:35:54;19.52;;;12.13;;
50739;SDS011;36704;52.524;17.580;2022-09-09T00:38:44;18.27;;;11.70;;
50739;SDS011;36704;52.524;17.580;2022-09-09T00:44:37;18.77;;;12.68;;
50739;SDS011;36704;52.524;17.580;2022-09-09T00:47:29;18.98;;;12.57;;
50739;SDS011;36704;52.524;17.580;2022-09-09T00:50:33;20.17;;;13.45;;
50739;SDS011;36704;52.524;17.580;2022-09-09T00:53:29;19.95;;;12.43;;
50739;SDS011;36704;52.524;17.580;2022-09-09T00:56:26;20.63;;;12.77;;
50739;SDS011;36704;52.524;17.580;2022-09-09T00:59:32;17.73;;;14.00;;
50739;SDS011;36704;52.524;17.580;2022-09-09T01:02:26;22.85;;;13.52;;
50739;SDS011;36704;52.524;17.580;2022-09-09T01:05:20;20.10;;;12.80;;
50739;SDS011;36704;52.524;17.580;2022-09-09T01:08:18;17.88;;;12.98;;
50739;SDS011;36704;52.524;17.580;2022-09-09T01:11:17;17.73;;;12.30;;
50739;SDS011;36704;52.524;17.580;2022-09-09T01:14:11;17.50;;;12.60;;
50739;SDS011;36704;52.524;17.580;2022-09-09T01:17:10;17.67;;;12.80;;
50739;SDS011;36704;52.524;17.580;2022-09-09T01:20:05;19.98;;;13.15;;
50739;SDS011;36704;52.524;17.580;2022-09-09T01:26:41;16.10;;;11.87;;
50739;SDS011;36704;52.524;17.580;2022-09-09T01:29:37;16.40;;;11.30;;
50739;SDS011;36704;52.524;17.580;2022-09-09T01:38:38;14.52;;;10.80;;
50739;SDS011;36704;52.524;17.580;2022-09-09T01:41:24;19.02;;;12.40;;
50739;SDS011;36704;52.524;17.580;2022-09-09T01:44:19;20.35;;;12.02;;
50739;SDS011;36704;52.524;17.580;2022-09-09T01:47:05;13.98;;;10.73;;
50739;SDS011;36704;52.524;17.580;2022-09-09T01:49:55;18.77;;;12.27;;
50739;SDS011;36704;52.524;17.580;2022-09-09T01:52:44;19.58;;;11.95;;
50739;SDS011;36704;52.524;17.580;2022-09-09T01:55:40;18.10;;;12.52;;
50739;SDS011;36704;52.524;17.580;2022-09-09T01:58:51;17.70;;;10.80;;
50739;SDS011;36704;52.524;17.580;2022-09-09T02:02:13;19.15;;;13.02;;
50739;SDS011;36704;52.524;17.580;2022-09-09T02:08:47;15.73;;;9.48;;
50739;SDS011;36704;52.524;17.580;2022-09-09T02:11:35;17.33;;;11.27;;
50739;SDS011;36704;52.524;17.580;2022-09-09T02:14:42;16.20;;;11.20;;
50739;SDS011;36704;52.524;17.580;2022-09-09T02:17:37;15.35;;;10.40;;
50739;SDS011;36704;52.524;17.580;2022-09-09T02:20:29;17.98;;;12.40;;
50739;SDS011;36704;52.524;17.580;2022-09-09T02:23:19;16.02;;;10.52;;
50739;SDS011;36704;52.524;17.580;2022-09-09T02:26:10;17.45;;;11.68;;
50739;SDS011;36704;52.524;17.580;2022-09-09T02:29:01;19.85;;;11.50;;
50739;SDS011;36704;52.524;17.580;2022-09-09T02:31:49;17.73;;;12.00;;
50739;SDS011;36704;52.524;17.580;2022-09-09T02:34:42;18.10;;;13.05;;
50739;SDS011;36704;52.524;17.580;2022-09-09T02:37:42;16.38;;;10.93;;
50739;SDS011;36704;52.524;17.580;2022-09-09T02:40:32;16.27;;;10.73;;
50739;SDS011;36704;52.524;17.580;2022-09-09T02:43:21;17.00;;;9.70;;
50739;SDS011;36704;52.524;17.580;2022-09-09T02:52:04;18.90;;;11.68;;
50739;SDS011;36704;52.524;17.580;2022-09-09T02:54:55;19.42;;;11.25;;
50739;SDS011;36704;52.524;17.580;2022-09-09T02:57:47;15.00;;;10.25;;
50739;SDS011;36704;52.524;17.580;2022-09-09T03:00:40;13.95;;;10.80;;
50739;SDS011;36704;52.524;17.580;2022-09-09T03:03:29;17.92;;;11.38;;
50739;SDS011;36704;52.524;17.580;2022-09-09T03:06:17;13.23;;;10.13;;
50739;SDS011;36704;52.524;17.580;2022-09-09T03:09:09;16.52;;;11.60;;
50739;SDS011;36704;52.524;17.580;2022-09-09T03:11:56;16.10;;;11.60;;
50739;SDS011;36704;52.524;17.580;2022-09-09T03:14:42;16.10;;;12.05;;
50739;SDS011;36704;52.524;17.580;2022-09-09T03:17:31;16.50;;;11.57;;
50739;SDS011;36704;52.524;17.580;2022-09-09T03:20:16;16.27;;;11.65;;
50739;SDS011;36704;52.524;17.580;2022-09-09T03:23:03;16.92;;;12.20;;
50739;SDS011;36704;52.524;17.580;2022-09-09T03:25:49;14.75;;;10.55;;
50739;SDS011;36704;52.524;17.580;2022-09-09T03:28:39;18.45;;;12.75;;
50739;SDS011;36704;52.524;17.580;2022-09-09T03:31:25;20.80;;;12.27;;
50739;SDS011;36704;52.524;17.580;2022-09-09T03:34:12;16.73;;;12.70;;
50739;SDS011;36704;52.524;17.580;2022-09-09T03:36:59;16.42;;;12.25;;
50739;SDS011;36704;52.524;17.580;2022-09-09T03:39:46;16.52;;;11.02;;
50739;SDS011;36704;52.524;17.580;2022-09-09T03:42:34;18.45;;;11.25;;
50739;SDS011;36704;52.524;17.580;2022-09-09T03:45:23;18.48;;;12.75;;
50739;SDS011;36704;52.524;17.580;2022-09-09T03:48:09;18.88;;;11.25;;
50739;SDS011;36704;52.524;17.580;2022-09-09T03:50:57;18.85;;;12.38;;
50739;SDS011;36704;52.524;17.580;2022-09-09T03:53:47;18.80;;;12.73;;
50739;SDS011;36704;52.524;17.580;2022-09-09T03:56:34;17.67;;;11.70;;
50739;SDS011;36704;52.524;17.580;2022-09-09T03:59:21;15.38;;;11.32;;
50739;SDS011;36704;52.524;17.580;2022-09-09T04:02:07;16.65;;;12.65;;
50739;SDS011;36704;52.524;17.580;2022-09-09T04:04:53;17.35;;;12.00;;
50739;SDS011;36704;52.524;17.580;2022-09-09T04:07:39;15.90;;;10.23;;
50739;SDS011;36704;52.524;17.580;2022-09-09T04:10:25;16.67;;;11.48;;
50739;SDS011;36704;52.524;17.580;2022-09-09T04:13:14;13.40;;;11.00;;
50739;SDS011;36704;52.524;17.580;2022-09-09T04:16:02;19.35;;;12.65;;
50739;SDS011;36704;52.524;17.580;2022-09-09T04:18:51;16.67;;;11.70;;
50739;SDS011;36704;52.524;17.580;2022-09-09T04:21:38;15.05;;;11.55;;
50739;SDS011;36704;52.524;17.580;2022-09-09T04:24:25;17.15;;;11.68;;
50739;SDS011;36704;52.524;17.580;2022-09-09T04:27:13;18.75;;;11.98;;
50739;SDS011;36704;52.524;17.580;2022-09-09T04:30:05;16.80;;;12.20;;
50739;SDS011;36704;52.524;17.580;2022-09-09T04:32:53;19.73;;;11.35;;
50739;SDS011;36704;52.524;17.580;2022-09-09T04:35:44;18.73;;;12.80;;
50739;SDS011;36704;52.524;17.580;2022-09-09T04:41:16;16.92;;;11.80;;
50739;SDS011;36704;52.524;17.580;2022-09-09T04:44:11;17.55;;;12.45;;
50739;SDS011;36704;52.524;17.580;2022-09-09T04:46:57;20.75;;;12.75;;
50739;SDS011;36704;52.524;17.580;2022-09-09T04:49:43;16.13;;;11.77;;
50739;SDS011;36704;52.524;17.580;2022-09-09T04:52:33;16.38;;;11.93;;
50739;SDS011;36704;52.524;17.580;2022-09-09T04:55:20;20.08;;;13.57;;
50739;SDS011;36704;52.524;17.580;2022-09-09T04:58:07;19.00;;;12.75;;
50739;SDS011;36704;52.524;17.580;2022-09-09T05:01:10;16.50;;;12.88;;
50739;SDS011;36704;52.524;17.580;2022-09-09T05:04:03;15.77;;;11.82;;
50739;SDS011;36704;52.524;17.580;2022-09-09T05:06:51;18.15;;;12.35;;
50739;SDS011;36704;52.524;17.580;2022-09-09T05:09:37;19.95;;;12.80;;
50739;SDS011;36704;52.524;17.580;2022-09-09T05:12:23;19.77;;;13.88;;
50739;SDS011;36704;52.524;17.580;2022-09-09T05:15:11;17.35;;;11.15;;
50739;SDS011;36704;52.524;17.580;2022-09-09T05:17:58;18.00;;;12.40;;
50739;SDS011;36704;52.524;17.580;2022-09-09T05:20:48;19.38;;;13.73;;
50739;SDS011;36704;52.524;17.580;2022-09-09T05:23:34;18.92;;;12.18;;
50739;SDS011;36704;52.524;17.580;2022-09-09T05:26:23;18.77;;;13.45;;
50739;SDS011;36704;52.524;17.580;2022-09-09T05:29:11;19.33;;;13.10;;
50739;SDS011;36704;52.524;17.580;2022-09-09T05:31:57;20.23;;;12.40;;
50739;SDS011;36704;52.524;17.580;2022-09-09T05:34:44;16.83;;;12.43;;
50739;SDS011;36704;52.524;17.580;2022-09-09T05:37:30;15.63;;;11.65;;
50739;SDS011;36704;52.524;17.580;2022-09-09T05:40:17;14.65;;;11.10;;
50739;SDS011;36704;52.524;17.580;2022-09-09T05:43:03;18.00;;;13.07;;
50739;SDS011;36704;52.524;17.580;2022-09-09T05:48:51;16.80;;;12.95;;
50739;SDS011;36704;52.524;17.580;2022-09-09T05:51:42;16.73;;;11.20;;
50739;SDS011;36704;52.524;17.580;2022-09-09T05:54:33;14.23;;;10.70;;
50739;SDS011;36704;52.524;17.580;2022-09-09T05:57:20;15.70;;;11.40;;
50739;SDS011;36704;52.524;17.580;2022-09-09T06:00:17;15.40;;;11.32;;
50739;SDS011;36704;52.524;17.580;2022-09-09T06:03:05;14.60;;;10.60;;
50739;SDS011;36704;52.524;17.580;2022-09-09T06:05:58;15.30;;;11.15;;
50739;SDS011;36704;52.524;17.580;2022-09-09T06:08:48;15.52;;;11.07;;
50739;SDS011;36704;52.524;17.580;2022-09-09T06:11:37;12.73;;;10.48;;
50739;SDS011;36704;52.524;17.580;2022-09-09T06:14:24;10.27;;;9.15;;
50739;SDS011;36704;52.524;17.580;2022-09-09T06:17:16;13.23;;;9.52;;
50739;SDS011;36704;52.524;17.580;2022-09-09T06:20:02;11.90;;;9.40;;
50739;SDS011;36704;52.524;17.580;2022-09-09T06:22:50;10.13;;;8.50;;
50739;SDS011;36704;52.524;17.580;2022-09-09T06:25:36;9.50;;;7.90;;
50739;SDS011;36704;52.524;17.580;2022-09-09T06:28:23;9.40;;;7.57;;
50739;SDS011;36704;52.524;17.580;2022-09-09T06:31:11;8.45;;;7.40;;
50739;SDS011;36704;52.524;17.580;2022-09-09T06:34:01;7.90;;;6.07;;
50739;SDS011;36704;52.524;17.580;2022-09-09T06:36:48;7.13;;;6.28;;
50739;SDS011;36704;52.524;17.580;2022-09-09T06:39:35;7.30;;;5.25;;
50739;SDS011;36704;52.524;17.580;2022-09-09T06:42:21;5.75;;;5.15;;
50739;SDS011;36704;52.524;17.580;2022-09-09T06:45:07;4.75;;;4.25;;
50739;SDS011;36704;52.524;17.580;2022-09-09T06:48:03;6.05;;;4.20;;
50739;SDS011;36704;52.524;17.580;2022-09-09T06:51:09;4.57;;;3.92;;
50739;SDS011;36704;52.524;17.580;2022-09-09T06:54:15;4.45;;;4.05;;
50739;SDS011;36704;52.524;17.580;2022-09-09T06:57:03;6.50;;;4.38;;
50739;SDS011;36704;52.524;17.580;2022-09-09T07:00:23;4.60;;;4.20;;
50739;SDS011;36704;52.524;17.580;2022-09-09T07:03:09;6.15;;;5.07;;
50739;SDS011;36704;52.524;17.580;2022-09-09T07:05:56;5.18;;;4.10;;
50739;SDS011;36704;52.524;17.580;2022-09-09T07:08:52;6.65;;;5.45;;
50739;SDS011;36704;52.524;17.580;2022-09-09T07:11:45;5.00;;;4.50;;
50739;SDS011;36704;52.524;17.580;2022-09-09T07:14:33;8.05;;;5.10;;
50739;SDS011;36704;52.524;17.580;2022-09-09T07:17:23;5.57;;;4.93;;
50739;SDS011;36704;52.524;17.580;2022-09-09T07:20:10;4.50;;;4.05;;
50739;SDS011;36704;52.524;17.580;2022-09-09T07:22:58;6.78;;;4.38;;
50739;SDS011;36704;52.524;17.580;2022-09-09T07:25:45;5.68;;;3.83;;
50739;SDS011;36704;52.524;17.580;2022-09-09T07:28:34;3.95;;;3.63;;
50739;SDS011;36704;52.524;17.580;2022-09-09T07:31:22;5.88;;;4.93;;
50739;SDS011;36704;52.524;17.580;2022-09-09T07:34:12;7.28;;;6.47;;
50739;SDS011;36704;52.524;17.580;2022-09-09T07:36:59;7.97;;;6.50;;
50739;SDS011;36704;52.524;17.580;2022-09-09T07:39:47;6.93;;;4.90;;
50739;SDS011;36704;52.524;17.580;2022-09-09T07:42:35;7.82;;;6.38;;
50739;SDS011;36704;52.524;17.580;2022-09-09T07:45:23;5.30;;;4.18;;
50739;SDS011;36704;52.524;17.580;2022-09-09T07:48:09;4.13;;;3.40;;
50739;SDS011;36704;52.524;17.580;2022-09-09T07:51:05;4.70;;;4.30;;
50739;SDS011;36704;52.524;17.580;2022-09-09T07:53:58;5.97;;;4.93;;
50739;SDS011;36704;52.524;17.580;2022-09-09T07:56:49;4.60;;;3.97;;
50739;SDS011;36704;52.524;17.580;2022-09-09T07:59:38;7.95;;;6.70;;
50739;SDS011;36704;52.524;17.580;2022-09-09T08:02:26;8.15;;;7.30;;
50739;SDS011;36704;52.524;17.580;2022-09-09T08:05:15;5.83;;;5.03;;
50739;SDS011;36704;52.524;17.580;2022-09-09T08:08:02;4.20;;;3.75;;
50739;SDS011;36704;52.524;17.580;2022-09-09T08:10:50;6.05;;;4.60;;
50739;SDS011;36704;52.524;17.580;2022-09-09T08:13:38;6.05;;;5.38;;
50739;SDS011;36704;52.524;17.580;2022-09-09T08:16:26;7.50;;;6.20;;
50739;SDS011;36704;52.524;17.580;2022-09-09T08:19:14;5.70;;;4.53;;
50739;SDS011;36704;52.524;17.580;2022-09-09T08:22:04;5.80;;;5.15;;
50739;SDS011;36704;52.524;17.580;2022-09-09T08:24:52;12.02;;;7.93;;
50739;SDS011;36704;52.524;17.580;2022-09-09T08:27:39;9.75;;;5.90;;
50739;SDS011;36704;52.524;17.580;2022-09-09T08:30:24;12.13;;;7.50;;
50739;SDS011;36704;52.524;17.580;2022-09-09T08:33:11;6.57;;;5.43;;
50739;SDS011;36704;52.524;17.580;2022-09-09T08:35:57;10.18;;;7.05;;
50739;SDS011;36704;52.524;17.580;2022-09-09T08:38:43;7.85;;;5.97;;
50739;SDS011;36704;52.524;17.580;2022-09-09T08:42:17;5.65;;;4.78;;
50739;SDS011;36704;52.524;17.580;2022-09-09T08:51:28;5.50;;;4.90;;
50739;SDS011;36704;52.524;17.580;2022-09-09T08:54:17;6.20;;;4.78;;
50739;SDS011;36704;52.524;17.580;2022-09-09T08:57:25;5.25;;;4.65;;
50739;SDS011;36704;52.524;17.580;2022-09-09T09:00:12;30.42;;;7.10;;
50739;SDS011;36704;52.524;17.580;2022-09-09T09:06:34;11.55;;;7.68;;
50739;SDS011;36704;52.524;17.580;2022-09-09T09:12:42;9.13;;;7.47;;
50739;SDS011;36704;52.524;17.580;2022-09-09T09:15:38;9.90;;;7.80;;
50739;SDS011;36704;52.524;17.580;2022-09-09T09:18:26;13.80;;;7.80;;
50739;SDS011;36704;52.524;17.580;2022-09-09T09:24:18;8.05;;;6.38;;
50739;SDS011;36704;52.524;17.580;2022-09-09T09:27:16;6.55;;;5.10;;
50739;SDS011;36704;52.524;17.580;2022-09-09T09:30:13;7.45;;;5.93;;
50739;SDS011;36704;52.524;17.580;2022-09-09T09:36:21;5.68;;;4.90;;
50739;SDS011;36704;52.524;17.580;2022-09-09T09:39:22;6.85;;;5.40;;
50739;SDS011;36704;52.524;17.580;2022-09-09T09:42:33;12.15;;;8.50;;
50739;SDS011;36704;52.524;17.580;2022-09-09T09:46:02;7.05;;;5.40;;
50739;SDS011;36704;52.524;17.580;2022-09-09T09:49:04;6.57;;;5.88;;
50739;SDS011;36704;52.524;17.580;2022-09-09T09:51:59;6.30;;;5.15;;
50739;SDS011;36704;52.524;17.580;2022-09-09T09:54:48;7.28;;;5.15;;
50739;SDS011;36704;52.524;17.580;2022-09-09T09:57:34;7.22;;;5.28;;
50739;SDS011;36704;52.524;17.580;2022-09-09T10:00:25;5.47;;;4.97;;
50739;SDS011;36704;52.524;17.580;2022-09-09T10:03:25;7.13;;;6.07;;
50739;SDS011;36704;52.524;17.580;2022-09-09T10:06:14;9.30;;;6.43;;
50739;SDS011;36704;52.524;17.580;2022-09-09T10:09:01;6.60;;;5.32;;
50739;SDS011;36704;52.524;17.580;2022-09-09T10:21:13;9.75;;;6.05;;
50739;SDS011;36704;52.524;17.580;2022-09-09T10:30:22;10.40;;;7.57;;
50739;SDS011;36704;52.524;17.580;2022-09-09T10:33:26;8.90;;;6.82;;
50739;SDS011;36704;52.524;17.580;2022-09-09T10:36:26;5.88;;;4.90;;
50739;SDS011;36704;52.524;17.580;2022-09-09T10:42:18;5.35;;;3.88;;
50739;SDS011;36704;52.524;17.580;2022-09-09T10:45:10;5.63;;;4.32;;
50739;SDS011;36704;52.524;17.580;2022-09-09T10:48:03;5.30;;;4.40;;
50739;SDS011;36704;52.524;17.580;2022-09-09T10:51:45;4.78;;;3.75;;
50739;SDS011;36704;52.524;17.580;2022-09-09T10:54:18;4.82;;;4.03;;
50739;SDS011;36704;52.524;17.580;2022-09-09T11:00:41;9.00;;;4.28;;
50739;SDS011;36704;52.524;17.580;2022-09-09T11:03:29;8.65;;;4.40;;
50739;SDS011;36704;52.524;17.580;2022-09-09T11:06:19;4.30;;;3.88;;
50739;SDS011;36704;52.524;17.580;2022-09-09T11:09:08;5.50;;;4.10;;
50739;SDS011;36704;52.524;17.580;2022-09-09T11:12:00;4.22;;;3.63;;
50739;SDS011;36704;52.524;17.580;2022-09-09T11:15:00;4.03;;;3.65;;
50739;SDS011;36704;52.524;17.580;2022-09-09T11:17:56;5.13;;;3.75;;
50739;SDS011;36704;52.524;17.580;2022-09-09T11:20:45;7.43;;;3.72;;
50739;SDS011;36704;52.524;17.580;2022-09-09T11:23:39;5.13;;;3.90;;
50739;SDS011;36704;52.524;17.580;2022-09-09T11:26:30;5.03;;;4.00;;
50739;SDS011;36704;52.524;17.580;2022-09-09T11:38:13;4.80;;;3.42;;
50739;SDS011;36704;52.524;17.580;2022-09-09T11:41:04;4.65;;;3.47;;
50739;SDS011;36704;52.524;17.580;2022-09-09T11:43:53;4.03;;;3.30;;
50739;SDS011;36704;52.524;17.580;2022-09-09T11:46:38;4.78;;;3.25;;
50739;SDS011;36704;52.524;17.580;2022-09-09T11:52:41;4.55;;;3.25;;
50739;SDS011;36704;52.524;17.580;2022-09-09T11:55:31;5.82;;;2.80;;
50739;SDS011;36704;52.524;17.580;2022-09-09T11:58:19;2.90;;;2.60;;
50739;SDS011;36704;52.524;17.580;2022-09-09T12:01:54;4.03;;;2.30;;
50739;SDS011;36704;52.524;17.580;2022-09-09T12:04:33;3.80;;;2.72;;
50739;SDS011;36704;52.524;17.580;2022-09-09T12:10:20;6.07;;;2.72;;
50739;SDS011;36704;52.524;17.580;2022-09-09T12:13:16;4.18;;;2.80;;
50739;SDS011;36704;52.524;17.580;2022-09-09T12:16:04;4.72;;;2.80;;
50739;SDS011;36704;52.524;17.580;2022-09-09T12:18:50;4.97;;;2.63;;
50739;SDS011;36704;52.524;17.580;2022-09-09T12:21:39;2.97;;;2.38;;
50739;SDS011;36704;52.524;17.580;2022-09-09T12:24:47;2.15;;;1.80;;
50739;SDS011;36704;52.524;17.580;2022-09-09T12:27:43;2.65;;;1.70;;
50739;SDS011;36704;52.524;17.580;2022-09-09T12:30:46;4.85;;;3.70;;
50739;SDS011;36704;52.524;17.580;2022-09-09T12:33:44;3.03;;;2.70;;
50739;SDS011;36704;52.524;17.580;2022-09-09T12:36:32;3.30;;;2.50;;
50739;SDS011;36704;52.524;17.580;2022-09-09T12:39:38;2.42;;;2.20;;
50739;SDS011;36704;52.524;17.580;2022-09-09T12:42:31;3.55;;;1.73;;
50739;SDS011;36704;52.524;17.580;2022-09-09T12:45:26;3.08;;;2.20;;
50739;SDS011;36704;52.524;17.580;2022-09-09T12:48:12;3.63;;;2.47;;
50739;SDS011;36704;52.524;17.580;2022-09-09T12:51:00;3.08;;;2.00;;
50739;SDS011;36704;52.524;17.580;2022-09-09T12:53:47;3.72;;;2.10;;
50739;SDS011;36704;52.524;17.580;2022-09-09T12:56:33;2.47;;;1.80;;
50739;SDS011;36704;52.524;17.580;2022-09-09T12:59:25;3.05;;;1.90;;
50739;SDS011;36704;52.524;17.580;2022-09-09T13:02:22;2.30;;;1.98;;
50739;SDS011;36704;52.524;17.580;2022-09-09T13:05:18;2.13;;;1.50;;
50739;SDS011;36704;52.524;17.580;2022-09-09T13:08:12;2.42;;;1.70;;
50739;SDS011;36704;52.524;17.580;2022-09-09T13:11:00;3.33;;;1.42;;
50739;SDS011;36704;52.524;17.580;2022-09-09T13:13:52;5.18;;;1.30;;
50739;SDS011;36704;52.524;17.580;2022-09-09T13:16:41;2.85;;;1.40;;
50739;SDS011;36704;52.524;17.580;2022-09-09T13:19:28;3.58;;;2.03;;
50739;SDS011;36704;52.524;17.580;2022-09-09T13:25:29;1.98;;;1.50;;
50739;SDS011;36704;52.524;17.580;2022-09-09T13:28:20;1.60;;;1.50;;
50739;SDS011;36704;52.524;17.580;2022-09-09T13:31:19;3.25;;;1.65;;
50739;SDS011;36704;52.524;17.580;2022-09-09T13:34:11;2.75;;;1.42;;
50739;SDS011;36704;52.524;17.580;2022-09-09T13:37:00;2.33;;;1.50;;
50739;SDS011;36704;52.524;17.580;2022-09-09T13:39:56;1.60;;;1.50;;
50739;SDS011;36704;52.524;17.580;2022-09-09T13:42:43;1.95;;;1.38;;
50739;SDS011;36704;52.524;17.580;2022-09-09T13:45:30;3.83;;;1.52;;
50739;SDS011;36704;52.524;17.580;2022-09-09T13:48:17;2.92;;;1.52;;
50739;SDS011;36704;52.524;17.580;2022-09-09T13:51:04;3.38;;;1.88;;
50739;SDS011;36704;52.524;17.580;2022-09-09T13:53:51;3.13;;;1.67;;
50739;SDS011;36704;52.524;17.580;2022-09-09T13:56:38;2.78;;;1.80;;
50739;SDS011;36704;52.524;17.580;2022-09-09T13:59:24;2.10;;;1.90;;
50739;SDS011;36704;52.524;17.580;2022-09-09T14:02:32;3.22;;;1.50;;
50739;SDS011;36704;52.524;17.580;2022-09-09T14:05:19;1.70;;;1.50;;
50739;SDS011;36704;52.524;17.580;2022-09-09T14:08:05;1.45;;;1.30;;
50739;SDS011;36704;52.524;17.580;2022-09-09T14:10:52;2.45;;;1.42;;
50739;SDS011;36704;52.524;17.580;2022-09-09T14:13:38;2.47;;;1.70;;
50739;SDS011;36704;52.524;17.580;2022-09-09T14:16:24;3.50;;;1.63;;
50739;SDS011;36704;52.524;17.580;2022-09-09T14:19:16;3.28;;;1.58;;
50739;SDS011;36704;52.524;17.580;2022-09-09T14:22:01;3.03;;;1.50;;
50739;SDS011;36704;52.524;17.580;2022-09-09T14:24:48;3.05;;;1.50;;
50739;SDS011;36704;52.524;17.580;2022-09-09T14:27:34;3.92;;;1.60;;
50739;SDS011;36704;52.524;17.580;2022-09-09T14:30:21;4.20;;;1.40;;
50739;SDS011;36704;52.524;17.580;2022-09-09T14:33:08;2.55;;;1.50;;
50739;SDS011;36704;52.524;17.580;2022-09-09T14:35:58;1.77;;;1.00;;
50739;SDS011;36704;52.524;17.580;2022-09-09T14:38:46;2.08;;;1.10;;
50739;SDS011;36704;52.524;17.580;2022-09-09T14:41:32;2.30;;;1.27;;
50739;SDS011;36704;52.524;17.580;2022-09-09T14:44:18;2.13;;;1.25;;
50739;SDS011;36704;52.524;17.580;2022-09-09T14:47:05;1.67;;;1.23;;
50739;SDS011;36704;52.524;17.580;2022-09-09T14:49:51;4.68;;;2.03;;
50739;SDS011;36704;52.524;17.580;2022-09-09T14:52:37;2.38;;;1.30;;
50739;SDS011;36704;52.524;17.580;2022-09-09T14:55:23;3.08;;;1.42;;
50739;SDS011;36704;52.524;17.580;2022-09-09T14:58:09;1.40;;;1.10;;
50739;SDS011;36704;52.524;17.580;2022-09-09T15:00:55;3.58;;;1.35;;
50739;SDS011;36704;52.524;17.580;2022-09-09T15:03:42;1.90;;;1.20;;
50739;SDS011;36704;52.524;17.580;2022-09-09T15:06:29;5.07;;;1.88;;
50739;SDS011;36704;52.524;17.580;2022-09-09T15:09:17;3.03;;;1.00;;
50739;SDS011;36704;52.524;17.580;2022-09-09T15:12:02;1.92;;;0.75;;
50739;SDS011;36704;52.524;17.580;2022-09-09T15:14:50;1.88;;;1.48;;
50739;SDS011;36704;52.524;17.580;2022-09-09T15:17:36;1.10;;;0.93;;
50739;SDS011;36704;52.524;17.580;2022-09-09T15:20:22;2.00;;;1.00;;
50739;SDS011;36704;52.524;17.580;2022-09-09T15:23:07;2.10;;;0.90;;
50739;SDS011;36704;52.524;17.580;2022-09-09T15:25:54;1.58;;;1.00;;
50739;SDS011;36704;52.524;17.580;2022-09-09T15:28:41;1.08;;;0.90;;
50739;SDS011;36704;52.524;17.580;2022-09-09T15:31:30;2.05;;;0.90;;
50739;SDS011;36704;52.524;17.580;2022-09-09T15:34:17;2.30;;;1.10;;
50739;SDS011;36704;52.524;17.580;2022-09-09T15:37:03;3.25;;;0.88;;
50739;SDS011;36704;52.524;17.580;2022-09-09T15:39:48;2.50;;;1.15;;
50739;SDS011;36704;52.524;17.580;2022-09-09T15:42:35;2.38;;;1.20;;
50739;SDS011;36704;52.524;17.580;2022-09-09T15:45:20;4.30;;;1.10;;
50739;SDS011;36704;52.524;17.580;2022-09-09T15:48:06;1.73;;;1.00;;
50739;SDS011;36704;52.524;17.580;2022-09-09T15:51:02;1.25;;;1.00;;
50739;SDS011;36704;52.524;17.580;2022-09-09T15:54:04;2.80;;;1.10;;
50739;SDS011;36704;52.524;17.580;2022-09-09T15:56:52;1.45;;;1.20;;
50739;SDS011;36704;52.524;17.580;2022-09-09T15:59:42;1.88;;;1.30;;
50739;SDS011;36704;52.524;17.580;2022-09-09T16:02:30;2.75;;;1.20;;
50739;SDS011;36704;52.524;17.580;2022-09-09T16:05:16;1.80;;;1.25;;
50739;SDS011;36704;52.524;17.580;2022-09-09T16:08:01;1.40;;;1.20;;
50739;SDS011;36704;52.524;17.580;2022-09-09T16:10:48;4.20;;;1.70;;
50739;SDS011;36704;52.524;17.580;2022-09-09T16:13:34;1.48;;;1.25;;
50739;SDS011;36704;52.524;17.580;2022-09-09T16:16:25;2.45;;;1.38;;
50739;SDS011;36704;52.524;17.580;2022-09-09T16:19:14;2.25;;;1.30;;
50739;SDS011;36704;52.524;17.580;2022-09-09T16:22:00;2.05;;;1.08;;
50739;SDS011;36704;52.524;17.580;2022-09-09T16:24:47;5.13;;;1.50;;
50739;SDS011;36704;52.524;17.580;2022-09-09T16:27:33;3.05;;;1.10;;
50739;SDS011;36704;52.524;17.580;2022-09-09T16:30:19;2.65;;;1.50;;
50739;SDS011;36704;52.524;17.580;2022-09-09T16:33:04;2.42;;;1.23;;
50739;SDS011;36704;52.524;17.580;2022-09-09T16:35:50;2.17;;;1.52;;
50739;SDS011;36704;52.524;17.580;2022-09-09T16:38:36;2.00;;;1.20;;
50739;SDS011;36704;52.524;17.580;2022-09-09T16:41:22;1.67;;;1.27;;
50739;SDS011;36704;52.524;17.580;2022-09-09T16:44:09;5.78;;;2.75;;
50739;SDS011;36704;52.524;17.580;2022-09-09T16:46:55;4.20;;;2.80;;
50739;SDS011;36704;52.524;17.580;2022-09-09T16:49:45;3.78;;;2.17;;
50739;SDS011;36704;52.524;17.580;2022-09-09T16:52:30;3.92;;;1.90;;
50739;SDS011;36704;52.524;17.580;2022-09-09T16:55:16;6.80;;;2.30;;
50739;SDS011;36704;52.524;17.580;2022-09-09T16:58:02;4.25;;;2.20;;
50739;SDS011;36704;52.524;17.580;2022-09-09T17:00:47;4.63;;;1.95;;
50739;SDS011;36704;52.524;17.580;2022-09-09T17:03:33;4.10;;;1.77;;
50739;SDS011;36704;52.524;17.580;2022-09-09T17:06:19;3.55;;;2.35;;
50739;SDS011;36704;52.524;17.580;2022-09-09T17:09:06;5.82;;;2.70;;
50739;SDS011;36704;52.524;17.580;2022-09-09T17:11:53;3.83;;;2.38;;
50739;SDS011;36704;52.524;17.580;2022-09-09T17:14:39;5.90;;;2.60;;
50739;SDS011;36704;52.524;17.580;2022-09-09T17:17:26;5.38;;;2.70;;
50739;SDS011;36704;52.524;17.580;2022-09-09T17:20:16;3.92;;;2.45;;
50739;SDS011;36704;52.524;17.580;2022-09-09T17:23:02;3.60;;;2.13;;
50739;SDS011;36704;52.524;17.580;2022-09-09T17:25:58;4.90;;;2.30;;
50739;SDS011;36704;52.524;17.580;2022-09-09T17:28:45;5.53;;;3.00;;
50739;SDS011;36704;52.524;17.580;2022-09-09T17:31:30;4.95;;;2.70;;
50739;SDS011;36704;52.524;17.580;2022-09-09T17:34:18;6.97;;;3.55;;
50739;SDS011;36704;52.524;17.580;2022-09-09T17:37:04;5.57;;;2.75;;
50739;SDS011;36704;52.524;17.580;2022-09-09T17:39:51;4.00;;;2.65;;
50739;SDS011;36704;52.524;17.580;2022-09-09T17:42:37;5.75;;;3.97;;
50739;SDS011;36704;52.524;17.580;2022-09-09T17:45:23;4.88;;;3.53;;
50739;SDS011;36704;52.524;17.580;2022-09-09T17:48:08;7.15;;;3.55;;
50739;SDS011;36704;52.524;17.580;2022-09-09T17:50:58;5.32;;;3.00;;
50739;SDS011;36704;52.524;17.580;2022-09-09T17:53:48;4.40;;;2.95;;
50739;SDS011;36704;52.524;17.580;2022-09-09T17:56:35;5.57;;;3.20;;
50739;SDS011;36704;52.524;17.580;2022-09-09T17:59:22;6.93;;;3.65;;
50739;SDS011;36704;52.524;17.580;2022-09-09T18:02:11;5.88;;;3.65;;
50739;SDS011;36704;52.524;17.580;2022-09-09T18:04:57;5.47;;;3.42;;
50739;SDS011;36704;52.524;17.580;2022-09-09T18:07:42;7.57;;;4.97;;
50739;SDS011;36704;52.524;17.580;2022-09-09T18:10:28;6.70;;;4.25;;
50739;SDS011;36704;52.524;17.580;2022-09-09T18:13:13;11.10;;;6.20;;
50739;SDS011;36704;52.524;17.580;2022-09-09T18:16:00;14.10;;;6.90;;